Flight Track Log - Related Links

Times and Time Zones

All times are in EDT time to prevent confusion due to time zone crossing. See the N534QS flight status page for this flight to view local times or setup timezone preferences in your user account.

Time Position Orientation Groundspeed Altitude Reporting Facility
EDT Latitude Longitude Course Direction KTS MPH feet Rate Location/Type
Sun 01:28:00 PM 62.0539 21.9625 303° West  Level Estimated
Sun 01:29:00 PM 62.1047 21.7342 296° West  Level Estimated
Sun 01:30:00 PM 62.1551 21.5052 295° West  Level Estimated
Sun 01:31:00 PM 62.2052 21.2754 295° West  Level Estimated
Sun 01:32:00 PM 62.2548 21.0449 295° West  Level Estimated
Sun 01:33:00 PM 62.3041 20.8136 295° West  Level Estimated
Sun 01:34:00 PM 62.3530 20.5815 295° West  Level Estimated
Sun 01:35:00 PM 62.4015 20.3487 294° West  Level Estimated
Sun 01:36:00 PM 62.4496 20.1151 294° West  Level Estimated
Sun 01:37:00 PM 62.4973 19.8808 294° West  Level Estimated
Sun 01:38:00 PM 62.5446 19.6458 294° West  Level Estimated
Sun 01:39:00 PM 62.5916 19.4099 293° West  Level Estimated
Sun 01:40:00 PM 62.6381 19.1734 293° West  Level Estimated
Sun 01:41:00 PM 62.6842 18.9361 293° West  Level Estimated
Sun 01:42:00 PM 62.7300 18.6981 293° West  Level Estimated
Sun 01:43:00 PM 62.7753 18.4593 293° West  Level Estimated
Sun 01:44:00 PM 62.8202 18.2198 292° West  Level Estimated
Sun 01:45:00 PM 62.8647 17.9796 292° West  Level Estimated
Sun 01:46:00 PM 62.9089 17.7386 292° West  Level Estimated
Sun 01:47:00 PM 62.9525 17.4969 292° West  Level Estimated
Sun 01:48:00 PM 62.9958 17.2545 292° West  Level Estimated
Sun 01:49:00 PM 63.0387 17.0114 291° West  Level Estimated
Sun 01:50:00 PM 63.0811 16.7676 291° West  Level Estimated
Sun 01:51:00 PM 63.1232 16.5231 291° West  Level Estimated
Sun 01:52:00 PM 63.1648 16.2778 291° West  Level Estimated
Sun 01:53:00 PM 63.2060 16.0319 290° West  Level Estimated
Sun 01:54:00 PM 63.2467 15.7853 290° West  Level Estimated
Sun 01:55:00 PM 63.2870 15.5379 290° West  Level Estimated
Sun 01:56:00 PM 63.3269 15.2899 290° West  Level Estimated
Sun 01:57:00 PM 63.3664 15.0412 290° West  Level Estimated
Sun 01:58:00 PM 63.4054 14.7918 289° West  Level Estimated
Sun 01:59:00 PM 63.4440 14.5417 289° West  Level Estimated
Sun 02:00:00 PM 63.4822 14.2910 289° West  Level Estimated
Sun 02:01:00 PM 63.5199 14.0396 289° West  Level Estimated
Sun 02:02:00 PM 63.5572 13.7876 288° West  Level Estimated
Sun 02:03:00 PM 63.5940 13.5348 288° West  Level Estimated
Sun 02:04:00 PM 63.6304 13.2815 288° West  Level Estimated
Sun 02:05:00 PM 63.6663 13.0275 288° West  Level Estimated
Sun 02:06:00 PM 63.7018 12.7728 288° West  Level Estimated
Sun 02:07:00 PM 63.7369 12.5175 287° West  Level Estimated
Sun 02:08:00 PM 63.7715 12.2616 287° West  Level Estimated
Sun 02:09:00 PM 63.8056 12.0051 287° West  Level Estimated
Sun 02:10:00 PM 63.8393 11.7479 287° West  Level Estimated
Sun 02:11:00 PM 63.8725 11.4901 286° West  Level Estimated
Sun 02:12:00 PM 63.9052 11.2317 286° West  Level Estimated
Sun 02:13:00 PM 63.9375 10.9728 286° West  Level Estimated
Sun 02:14:00 PM 63.9694 10.7132 286° West  Level Estimated
Sun 02:15:00 PM 64.0007 10.4530 285° West  Level Estimated
Sun 02:16:00 PM 64.0316 10.1923 285° West  Level Estimated
Sun 02:17:00 PM 64.0621 9.9310 285° West  Level Estimated
Sun 02:18:00 PM 64.0921 9.6691 285° West  Level Estimated
Sun 02:19:00 PM 64.1216 9.4067 285° West  Level Estimated
Sun 02:20:00 PM 64.1506 9.1437 284° West  Level Estimated
Sun 02:21:00 PM 64.1791 8.8801 284° West  Level Estimated
Sun 02:22:00 PM 64.2072 8.6161 284° West  Level Estimated
Sun 02:23:00 PM 64.2348 8.3514 284° West  Level Estimated
Sun 02:24:00 PM 64.2619 8.0863 283° West  Level Estimated
Sun 02:25:00 PM 64.2885 7.8207 283° West  Level Estimated
Sun 02:26:00 PM 64.3147 7.5545 283° West  Level Estimated
Sun 02:27:00 PM 64.3403 7.2878 283° West  Level Estimated
Sun 02:28:00 PM 64.3655 7.0207 282° West  Level Estimated
Sun 02:29:00 PM 64.3902 6.7531 282° West  Level Estimated
Sun 02:30:00 PM 64.4144 6.4850 282° West  Level Estimated
Sun 02:31:00 PM 64.4382 6.2164 282° West  Level Estimated
Sun 02:32:00 PM 64.4614 5.9473 281° West  Level Estimated
Sun 02:33:00 PM 64.4841 5.6778 281° West  Level Estimated
Sun 02:34:00 PM 64.5064 5.4079 281° West  Level Estimated
Sun 02:35:00 PM 64.5281 5.1375 281° West  Level Estimated
Sun 02:36:00 PM 64.5494 4.8667 280° West  Level Estimated
Sun 02:37:00 PM 64.5701 4.5955 280° West  Level Estimated
Sun 02:38:00 PM 64.5904 4.3239 280° West  Level Estimated
Sun 02:39:00 PM 64.6101 4.0518 280° West  Level Estimated
Sun 02:40:00 PM 64.6294 3.7794 279° West  Level Estimated
Sun 02:41:00 PM 64.6481 3.5066 279° West  Level Estimated
Sun 02:42:00 PM 64.6664 3.2334 279° West  Level Estimated
Sun 02:43:00 PM 64.6841 2.9599 279° West  Level Estimated
Sun 02:44:00 PM 64.7013 2.6860 278° West  Level Estimated
Sun 02:45:00 PM 64.7181 2.4118 278° West  Level Estimated
Sun 02:46:00 PM 64.7343 2.1372 278° West  Level Estimated
Sun 02:47:00 PM 64.7500 1.8623 278° West  Level Estimated
Sun 02:48:00 PM 64.7652 1.5871 278° West  Level Estimated
Sun 02:49:00 PM 64.7799 1.3116 277° West  Level Estimated
Sun 02:50:00 PM 64.7941 1.0358 277° West  Level Estimated
Sun 02:51:00 PM 64.8078 0.7598 277° West  Level Estimated
Sun 02:52:00 PM 64.8209 0.4834 277° West  Level Estimated
Sun 02:53:00 PM 64.8336 0.2068 276° West  Level Estimated
Sun 02:54:00 PM 64.8457 -0.0701 276° West  Level Estimated
Sun 02:55:00 PM 64.8573 -0.3473 276° West  Level Estimated
Sun 02:56:00 PM 64.8684 -0.6246 276° West  Level Estimated
Sun 02:57:00 PM 64.8790 -0.9022 275° West  Level Estimated
Sun 02:58:00 PM 64.8891 -1.1800 275° West  Level Estimated
Sun 02:59:00 PM 64.8986 -1.4580 275° West  Level Estimated
Sun 03:00:00 PM 64.9077 -1.7362 275° West  Level Estimated
Sun 03:01:00 PM 64.9162 -2.0146 274° West  Level Estimated
Sun 03:02:00 PM 64.9242 -2.2931 274° West  Level Estimated
Sun 03:03:00 PM 64.9316 -2.5718 274° West  Level Estimated
Sun 03:04:00 PM 64.9386 -2.8507 273° West  Level Estimated
Sun 03:05:00 PM 64.9450 -3.1297 273° West  Level Estimated
Sun 03:06:00 PM 64.9509 -3.4088 273° West  Level Estimated
Sun 03:07:00 PM 64.9563 -3.6881 273° West  Level Estimated
Sun 03:08:00 PM 64.9612 -3.9674 272° West  Level Estimated
Sun 03:09:00 PM 64.9655 -4.2469 272° West  Level Estimated
Sun 03:10:00 PM 64.9693 -4.5264 272° West  Level Estimated
Sun 03:11:00 PM 64.9726 -4.8060 272° West  Level Estimated
Sun 03:12:00 PM 64.9754 -5.0857 271° West  Level Estimated
Sun 03:13:00 PM 64.9776 -5.3654 271° West  Level Estimated
Sun 03:14:00 PM 64.9794 -5.6452 271° West  Level Estimated
Sun 03:15:00 PM 64.9806 -5.9249 271° West  Level Estimated
Sun 03:16:00 PM 64.9812 -6.2048 270° West  Level Estimated
Sun 03:17:00 PM 64.9814 -6.4846 270° West  Level Estimated
Sun 03:18:00 PM 64.9810 -6.7644 270° West  Level Estimated
Sun 03:19:00 PM 64.9801 -7.0442 270° West  Level Estimated
Sun 03:20:00 PM 64.9787 -7.3240 269° West  Level Estimated
Sun 03:21:00 PM 64.9768 -7.6037 269° West  Level Estimated
Sun 03:22:00 PM 64.9743 -7.8834 269° West  Level Estimated
Sun 03:23:00 PM 64.9713 -8.1631 269° West  Level Estimated
Sun 03:24:00 PM 64.9678 -8.4426 268° West  Level Estimated
Sun 03:25:00 PM 64.9638 -8.7221 268° West  Level Estimated
Sun 03:26:00 PM 64.9592 -9.0016 268° West  Level Estimated
Sun 03:27:00 PM 64.9541 -9.2809 268° West  Level Estimated
Sun 03:28:00 PM 64.9485 -9.5601 267° West  Level Estimated
Sun 03:29:00 PM 64.9424 -9.8391 267° West  Level Estimated
Sun 03:30:00 PM 64.9358 -10.1181 267° West  Level Estimated
Sun 03:31:00 PM 64.9286 -10.3969 267° West  Level Estimated
Sun 03:32:00 PM 64.9209 -10.6755 266° West  Level Estimated
Sun 03:33:00 PM 64.9127 -10.9540 266° West  Level Estimated
Sun 03:34:00 PM 64.9040 -11.2323 266° West  Level Estimated
Sun 03:35:00 PM 64.8948 -11.5104 266° West  Level Estimated
Sun 03:36:00 PM 64.8850 -11.7883 265° West  Level Estimated
Sun 03:37:00 PM 64.8747 -12.0660 265° West  Level Estimated
Sun 03:38:00 PM 64.8639 -12.3435 265° West  Level Estimated
Sun 03:39:00 PM 64.8526 -12.6208 265° West  Level Estimated
Sun 03:40:00 PM 64.8408 -12.8978 264° West  Level Estimated
Sun 03:41:00 PM 64.8285 -13.1746 264° West  Level Estimated
Sun 03:42:00 PM 64.8156 -13.4511 264° West  Level Estimated
Sun 03:43:00 PM 64.8022 -13.7274 264° West  Level Estimated
Sun 03:44:00 PM 64.7884 -14.0034 263° West  Level Estimated
Sun 03:45:00 PM 64.7740 -14.2790 263° West  Level Estimated
Sun 03:46:00 PM 64.7590 -14.5544 263° West  Level Estimated
Sun 03:47:00 PM 64.7436 -14.8295 263° West  Level Estimated
Sun 03:48:00 PM 64.7277 -15.1043 262° West  Level Estimated
Sun 03:49:00 PM 64.7113 -15.3787 262° West  Level Estimated
Sun 03:50:00 PM 64.6943 -15.6528 262° West  Level Estimated
Sun 03:51:00 PM 64.6769 -15.9265 262° West  Level Estimated
Sun 03:52:00 PM 64.6589 -16.1999 261° West  Level Estimated
Sun 03:53:00 PM 64.6405 -16.4729 261° West  Level Estimated
Sun 03:54:00 PM 64.6215 -16.7456 261° West  Level Estimated
Sun 03:55:00 PM 64.6021 -17.0178 261° West  Level Estimated
Sun 03:56:00 PM 64.5821 -17.2897 260° West  Level Estimated
Sun 03:57:00 PM 64.5617 -17.5611 260° West  Level Estimated
Sun 03:58:00 PM 64.5407 -17.8322 260° West  Level Estimated
Sun 03:59:00 PM 64.5192 -18.1028 260° West  Level Estimated
Sun 04:00:00 PM 64.4973 -18.3730 259° West  Level Estimated
Sun 04:01:00 PM 64.4749 -18.6428 259° West  Level Estimated
Sun 04:02:00 PM 64.4519 -18.9121 259° West  Level Estimated
Sun 04:03:00 PM 64.4285 -19.1810 259° West  Level Estimated
Sun 04:04:00 PM 64.4046 -19.4493 258° West  Level Estimated
Sun 04:05:00 PM 64.3801 -19.7173 258° West  Level Estimated
Sun 04:06:00 PM 64.3552 -19.9847 258° West  Level Estimated
Sun 04:07:00 PM 64.3299 -20.2516 258° West  Level Estimated
Sun 04:08:00 PM 64.3040 -20.5181 257° West  Level Estimated
Sun 04:09:00 PM 64.2776 -20.7840 257° West  Level Estimated
Sun 04:10:00 PM 64.2508 -21.0495 257° West  Level Estimated
Sun 04:11:00 PM 64.2235 -21.3144 257° West  Level Estimated
Sun 04:12:00 PM 64.1957 -21.5788 257° West  Level Estimated
Sun 04:13:00 PM 64.1674 -21.8427 256° West  Level Estimated
Sun 04:14:00 PM 64.1387 -22.1060 256° West  Level Estimated
Sun 04:15:00 PM 64.1095 -22.3687 256° West  Level Estimated
Sun 04:16:00 PM 64.0798 -22.6310 256° West  Level Estimated
Sun 04:17:00 PM 64.0496 -22.8926 255° West  Level Estimated
Sun 04:18:00 PM 64.0190 -23.1537 255° West  Level Estimated
Sun 04:19:00 PM 63.9879 -23.4142 255° West  Level Estimated
Sun 04:20:00 PM 63.9563 -23.6741 255° West  Level Estimated
Sun 04:21:00 PM 63.9243 -23.9334 254° West  Level Estimated
Sun 04:22:00 PM 63.8918 -24.1922 254° West  Level Estimated
Sun 04:23:00 PM 63.8589 -24.4503 254° West  Level Estimated
Sun 04:24:00 PM 63.8255 -24.7078 254° West  Level Estimated
Sun 04:25:00 PM 63.7916 -24.9647 253° West  Level Estimated
Sun 04:26:00 PM 63.7573 -25.2210 253° West  Level Estimated
Sun 04:27:00 PM 63.7225 -25.4767 253° West  Level Estimated
Sun 04:28:00 PM 63.6873 -25.7317 253° West  Level Estimated
Sun 04:29:00 PM 63.6516 -25.9861 253° West  Level Estimated
Sun 04:30:00 PM 63.6155 -26.2398 252° West  Level Estimated
Sun 04:31:00 PM 63.5789 -26.4930 252° West  Level Estimated
Sun 04:32:00 PM 63.5419 -26.7454 252° West  Level Estimated
Sun 04:33:00 PM 63.5044 -26.9972 252° West  Level Estimated
Sun 04:34:00 PM 63.4665 -27.2483 251° West  Level Estimated
Sun 04:35:00 PM 63.4282 -27.4988 251° West  Level Estimated
Sun 04:36:00 PM 63.3894 -27.7486 251° West  Level Estimated
Sun 04:37:00 PM 63.3502 -27.9977 251° West  Level Estimated
Sun 04:38:00 PM 63.3106 -28.2461 251° West  Level Estimated
Sun 04:39:00 PM 63.2705 -28.4938 250° West  Level Estimated
Sun 04:40:00 PM 63.2300 -28.7409 250° West  Level Estimated
Sun 04:41:00 PM 63.1891 -28.9872 250° West  Level Estimated
Sun 04:42:00 PM 63.1477 -29.2329 250° West  Level Estimated
Sun 04:43:00 PM 63.1059 -29.4778 249° West  Level Estimated
Sun 04:44:00 PM 63.0637 -29.7221 249° West  Level Estimated
Sun 04:45:00 PM 63.0211 -29.9656 249° West  Level Estimated
Sun 04:46:00 PM 62.9781 -30.2084 249° West  Level Estimated
Sun 04:47:00 PM 62.9346 -30.4505 249° West  Level Estimated
Sun 04:48:00 PM 62.8908 -30.6919 248° West  Level Estimated
Sun 04:49:00 PM 62.8465 -30.9326 248° West  Level Estimated
Sun 04:50:00 PM 62.8018 -31.1725 248° West  Level Estimated
Sun 04:51:00 PM 62.7567 -31.4117 248° West  Level Estimated
Sun 04:52:00 PM 62.7112 -31.6502 247° West  Level Estimated
Sun 04:53:00 PM 62.6653 -31.8879 247° West  Level Estimated
Sun 04:54:00 PM 62.6190 -32.1249 247° West  Level Estimated
Sun 04:55:00 PM 62.5723 -32.3611 247° West  Level Estimated
Sun 04:56:00 PM 62.5252 -32.5966 247° West  Level Estimated
Sun 04:57:00 PM 62.4777 -32.8314 246° West  Level Estimated
Sun 04:58:00 PM 62.4299 -33.0654 246° West  Level Estimated
Sun 04:59:00 PM 62.3816 -33.2986 246° West  Level Estimated
Sun 05:00:00 PM 62.3329 -33.5312 246° West  Level Estimated
Sun 05:01:00 PM 62.2839 -33.7629 246° West  Level Estimated
Sun 05:02:00 PM 62.2344 -33.9939 245° Southwest  Level Estimated
Sun 05:03:00 PM 62.1846 -34.2241 245° Southwest  Level Estimated
Sun 05:04:00 PM 62.1344 -34.4536 245° Southwest  Level Estimated
Sun 05:05:00 PM 62.0838 -34.6823 245° Southwest  Level Estimated
Sun 05:06:00 PM 62.0329 -34.9103 245° Southwest  Level Estimated
Sun 05:07:00 PM 61.9815 -35.1374 244° Southwest  Level Estimated
Sun 05:08:00 PM 61.9298 -35.3638 244° Southwest  Level Estimated
Sun 05:09:00 PM 61.8778 -35.5895 244° Southwest  Level Estimated
Sun 05:10:00 PM 61.8253 -35.8144 244° Southwest  Level Estimated
Sun 05:11:00 PM 61.7725 -36.0385 244° Southwest  Level Estimated
Sun 05:12:00 PM 61.7193 -36.2618 243° Southwest  Level Estimated
Sun 05:13:00 PM 61.6658 -36.4844 243° Southwest  Level Estimated
Sun 05:14:00 PM 61.6119 -36.7062 243° Southwest  Level Estimated
Sun 05:15:00 PM 61.5577 -36.9272 243° Southwest  Level Estimated
Sun 05:16:00 PM 61.5031 -37.1475 243° Southwest  Level Estimated
Sun 05:17:00 PM 61.4481 -37.3669 242° Southwest  Level Estimated
Sun 05:18:00 PM 61.3928 -37.5856 242° Southwest  Level Estimated
Sun 05:19:00 PM 61.3372 -37.8036 242° Southwest  Level Estimated
Sun 05:20:00 PM 61.2811 -38.0207 242° Southwest  Level Estimated
Sun 05:21:00 PM 61.2248 -38.2371 242° Southwest  Level Estimated
Sun 05:22:00 PM 61.1681 -38.4527 241° Southwest  Level Estimated
Sun 05:23:00 PM 61.1110 -38.6675 241° Southwest  Level Estimated
Sun 05:24:00 PM 61.0537 -38.8815 241° Southwest  Level Estimated
Sun 05:25:00 PM 60.9959 -39.0948 241° Southwest  Level Estimated
Sun 05:26:00 PM 60.9379 -39.3073 241° Southwest  Level Estimated
Sun 05:27:00 PM 60.8795 -39.5190 241° Southwest  Level Estimated
Sun 05:28:00 PM 60.8208 -39.7299 240° Southwest  Level Estimated
Sun 05:29:00 PM 60.7618 -39.9401 240° Southwest  Level Estimated
Sun 05:30:00 PM 60.7024 -40.1495 240° Southwest  Level Estimated
Sun 05:31:00 PM 60.6427 -40.3581 240° Southwest  Level Estimated
Sun 05:32:00 PM 60.5827 -40.5659 240° Southwest  Level Estimated
Sun 05:33:00 PM 60.5223 -40.7730 239° Southwest  Level Estimated
Sun 05:34:00 PM 60.4617 -40.9793 239° Southwest  Level Estimated
Sun 05:35:00 PM 60.4007 -41.1848 239° Southwest  Level Estimated
Sun 05:36:00 PM 60.3394 -41.3896 239° Southwest  Level Estimated
Sun 05:37:00 PM 60.2778 -41.5936 239° Southwest  Level Estimated
Sun 05:38:00 PM 60.2159 -41.7968 239° Southwest  Level Estimated
Sun 05:39:00 PM 60.1536 -41.9993 238° Southwest  Level Estimated
Sun 05:40:00 PM 60.0911 -42.2010 238° Southwest  Level Estimated
Sun 05:41:00 PM 60.0283 -42.4019 238° Southwest  Level Estimated
Sun 05:42:00 PM 59.9651 -42.6020 238° Southwest  Level Estimated
Sun 05:43:00 PM 59.9017 -42.8014 238° Southwest  Level Estimated
Sun 05:44:00 PM 59.8379 -43.0000 237° Southwest  Level Estimated
Sun 05:45:00 PM 59.7739 -43.1979 237° Southwest  Level Estimated
Sun 05:46:00 PM 59.7095 -43.3950 237° Southwest  Level Estimated
Sun 05:47:00 PM 59.6449 -43.5914 237° Southwest  Level Estimated
Sun 05:48:00 PM 59.5799 -43.7870 237° Southwest  Level Estimated
Sun 05:49:00 PM 59.5147 -43.9818 237° Southwest  Level Estimated
Sun 05:50:00 PM 59.4492 -44.1759 236° Southwest  Level Estimated
Sun 05:51:00 PM 59.3834 -44.3692 236° Southwest  Level Estimated
Sun 05:52:00 PM 59.3173 -44.5618 236° Southwest  Level Estimated
Sun 05:53:00 PM 59.2510 -44.7536 236° Southwest  Level Estimated
Sun 05:54:00 PM 59.1843 -44.9447 236° Southwest  Level Estimated
Sun 05:55:00 PM 59.1174 -45.1350 236° Southwest  Level Estimated
Sun 05:56:00 PM 59.0502 -45.3246 235° Southwest  Level Estimated
Sun 05:57:00 PM 58.9827 -45.5135 235° Southwest  Level Estimated
Sun 05:58:00 PM 58.9150 -45.7016 235° Southwest  Level Estimated
Sun 05:59:00 PM 58.8470 -45.8890 235° Southwest  Level Estimated
Sun 06:00:00 PM 58.7787 -46.0756 235° Southwest  Level Estimated
Sun 06:01:00 PM 58.7101 -46.2615 235° Southwest  Level Estimated
Sun 06:02:00 PM 58.6413 -46.4467 235° Southwest  Level Estimated
Sun 06:03:00 PM 58.5722 -46.6311 234° Southwest  Level Estimated
Sun 06:04:00 PM 58.5029 -46.8148 234° Southwest  Level Estimated
Sun 06:05:00 PM 58.4332 -46.9978 234° Southwest  Level Estimated
Sun 06:06:00 PM 58.3634 -47.1801 234° Southwest  Level Estimated
Sun 06:07:00 PM 58.2932 -47.3616 234° Southwest  Level Estimated
Sun 06:08:00 PM 58.2228 -47.5425 234° Southwest  Level Estimated
Sun 06:09:00 PM 58.1522 -47.7226 233° Southwest  Level Estimated
Sun 06:10:00 PM 58.0813 -47.9020 233° Southwest  Level Estimated
Sun 06:11:00 PM 58.0102 -48.0807 233° Southwest  Level Estimated
Sun 06:12:00 PM 57.9388 -48.2586 233° Southwest  Level Estimated
Sun 06:13:00 PM 57.8671 -48.4359 233° Southwest  Level Estimated
Sun 06:14:00 PM 57.7952 -48.6124 233° Southwest  Level Estimated
Sun 06:15:00 PM 57.7231 -48.7883 233° Southwest  Level Estimated
Sun 06:16:00 PM 57.6507 -48.9634 232° Southwest  Level Estimated
Sun 06:17:00 PM 57.5781 -49.1379 232° Southwest  Level Estimated
Sun 06:18:00 PM 57.5052 -49.3116 232° Southwest  Level Estimated
Sun 06:19:00 PM 57.4321 -49.4847 232° Southwest  Level Estimated
Sun 06:20:00 PM 57.3588 -49.6571 232° Southwest  Level Estimated
Sun 06:21:00 PM 57.2852 -49.8288 232° Southwest  Level Estimated
Sun 06:22:00 PM 57.2114 -49.9998 231° Southwest  Level Estimated
Sun 06:23:00 PM 57.1374 -50.1701 231° Southwest  Level Estimated
Sun 06:24:00 PM 57.0631 -50.3397 231° Southwest  Level Estimated
Sun 06:25:00 PM 56.9886 -50.5087 231° Southwest  Level Estimated
Sun 06:26:00 PM 56.9139 -50.6770 231° Southwest  Level Estimated
Sun 06:27:00 PM 56.8390 -50.8446 231° Southwest  Level Estimated
Sun 06:28:00 PM 56.7638 -51.0115 231° Southwest  Level Estimated
Sun 06:29:00 PM 56.6884 -51.1778 230° Southwest  Level Estimated
Sun 06:30:00 PM 56.6128 -51.3434 230° Southwest  Level Estimated
Sun 06:31:00 PM 56.5370 -51.5083 230° Southwest  Level Estimated
Sun 06:32:00 PM 56.4609 -51.6726 230° Southwest  Level Estimated
Sun 06:33:00 PM 56.3847 -51.8362 230° Southwest  Level Estimated
Sun 06:34:00 PM 56.3082 -51.9992 230° Southwest  Level Estimated
Sun 06:35:00 PM 56.2315 -52.1615 230° Southwest  Level Estimated
Sun 06:36:00 PM 56.1546 -52.3232 230° Southwest  Level Estimated
Sun 06:37:00 PM 56.0775 -52.4842 229° Southwest  Level Estimated
Sun 06:38:00 PM 56.0002 -52.6446 229° Southwest  Level Estimated
Sun 06:39:00 PM 55.9227 -52.8043 229° Southwest  Level Estimated
Sun 06:40:00 PM 55.8449 -52.9634 229° Southwest  Level Estimated
Sun 06:41:00 PM 55.7670 -53.1219 229° Southwest  Level Estimated
Sun 06:42:00 PM 55.6889 -53.2797 229° Southwest  Level Estimated
Sun 06:43:00 PM 55.6105 -53.4369 229° Southwest  Level Estimated
Sun 06:44:00 PM 55.5320 -53.5935 228° Southwest  Level Estimated
Sun 06:45:00 PM 55.4532 -53.7494 228° Southwest  Level Estimated
Sun 06:46:00 PM 55.3743 -53.9047 228° Southwest  Level Estimated
Sun 06:47:00 PM 55.2952 -54.0594 228° Southwest  Level Estimated
Sun 06:48:00 PM 55.2158 -54.2135 228° Southwest  Level Estimated
Sun 06:49:00 PM 55.1363 -54.3670 228° Southwest  Level Estimated
Sun 06:50:00 PM 55.0566 -54.5199 228° Southwest  Level Estimated
Sun 06:51:00 PM 54.9767 -54.6721 228° Southwest  Level Estimated
Sun 06:52:00 PM 54.8966 -54.8237 227° Southwest  Level Estimated
Sun 06:53:00 PM 54.8163 -54.9748 227° Southwest  Level Estimated
Sun 06:54:00 PM 54.7359 -55.1252 227° Southwest  Level Estimated
Sun 06:55:00 PM 54.6552 -55.2751 227° Southwest  Level Estimated
Sun 06:56:00 PM 54.5744 -55.4243 227° Southwest  Level Estimated
Sun 06:57:00 PM 54.4934 -55.5730 227° Southwest  Level Estimated
Sun 06:58:00 PM 54.4122 -55.7211 227° Southwest  Level Estimated
Sun 06:59:00 PM 54.3308 -55.8685 227° Southwest  Level Estimated
Sun 07:00:00 PM 54.2492 -56.0154 226° Southwest  Level Estimated
Sun 07:01:00 PM 54.1675 -56.1618 226° Southwest  Level Estimated
Sun 07:02:00 PM 54.0856 -56.3075 226° Southwest  Level Estimated
Sun 07:03:00 PM 54.0035 -56.4527 226° Southwest  Level Estimated
Sun 07:04:00 PM 53.9212 -56.5973 226° Southwest  Level Estimated
Sun 07:05:00 PM 53.8388 -56.7413 226° Southwest  Level Estimated
Sun 07:06:00 PM 53.7561 -56.8848 226° Southwest  Level Estimated
Sun 07:07:00 PM 53.6734 -57.0277 226° Southwest  Level Estimated
Sun 07:08:00 PM 53.5904 -57.1700 226° Southwest  Level Estimated
Sun 07:09:00 PM 53.5073 -57.3118 225° Southwest  Level Estimated
Sun 07:10:00 PM 53.4240 -57.4530 225° Southwest  Level Estimated
Sun 07:11:00 PM 53.3406 -57.5937 225° Southwest  Level Estimated
Sun 07:12:00 PM 53.2569 -57.7338 225° Southwest  Level Estimated
Sun 07:13:00 PM 53.1732 -57.8734 225° Southwest  Level Estimated
Sun 07:14:00 PM 53.0892 -58.0124 225° Southwest  Level Estimated
Sun 07:15:00 PM 53.0051 -58.1509 225° Southwest  Level Estimated
Sun 07:16:00 PM 52.9209 -58.2888 225° Southwest  Level Estimated
Sun 07:17:00 PM 52.8364 -58.4263 225° Southwest  Level Estimated
Sun 07:18:00 PM 52.7519 -58.5631 224° Southwest  Level Estimated
Sun 07:19:00 PM 52.6671 -58.6995 224° Southwest  Level Estimated
Sun 07:20:00 PM 52.5822 -58.8353 224° Southwest  Level Estimated
Sun 07:21:00 PM 52.4972 -58.9706 224° Southwest  Level Estimated
Sun 07:22:00 PM 52.4120 -59.1054 224° Southwest  Level Estimated
Sun 07:23:00 PM 52.3266 -59.2396 224° Southwest  Level Estimated
Sun 07:24:00 PM 52.2411 -59.3733 224° Southwest  Level Estimated
Sun 07:25:00 PM 52.1554 -59.5066 224° Southwest  Level Estimated
Sun 07:26:00 PM 52.0696 -59.6393 224° Southwest  Level Estimated
Sun 07:27:00 PM 51.9837 -59.7715 223° Southwest  Level Estimated
Sun 07:28:00 PM 51.8976 -59.9032 223° Southwest  Level Estimated
Sun 07:29:00 PM 51.8113 -60.0344 223° Southwest  Level Estimated
Sun 07:30:00 PM 51.7249 -60.1650 223° Southwest  Level Estimated
Sun 07:31:00 PM 51.6384 -60.2952 223° Southwest  Level Estimated
Sun 07:32:00 PM 51.5517 -60.4249 223° Southwest  Level Estimated
Sun 07:33:00 PM 51.4649 -60.5541 223° Southwest  Level Estimated
Sun 07:34:00 PM 51.3779 -60.6828 223° Southwest  Level Estimated
Sun 07:35:00 PM 51.2908 -60.8110 223° Southwest  Level Estimated
Sun 07:36:00 PM 51.2035 -60.9388 223° Southwest  Level Estimated
Sun 07:37:00 PM 51.1162 -61.0660 222° Southwest  Level Estimated
Sun 07:38:00 PM 51.0286 -61.1928 222° Southwest  Level Estimated
Sun 07:39:00 PM 50.9410 -61.3191 222° Southwest  Level Estimated
Sun 07:40:00 PM 50.8532 -61.4449 222° Southwest  Level Estimated
Sun 07:41:00 PM 50.7653 -61.5702 222° Southwest  Level Estimated
Sun 07:42:00 PM 50.6772 -61.6951 222° Southwest  Level Estimated
Sun 07:43:00 PM 50.5890 -61.8195 222° Southwest  Level Estimated
Sun 07:44:00 PM 50.5007 -61.9434 222° Southwest  Level Estimated
Sun 07:45:00 PM 50.4122 -62.0669 222° Southwest  Level Estimated
Sun 07:46:00 PM 50.3236 -62.1899 222° Southwest  Level Estimated
Sun 07:47:00 PM 50.2349 -62.3124 221° Southwest  Level Estimated
Sun 07:48:00 PM 50.1460 -62.4345 221° Southwest  Level Estimated
Sun 07:49:00 PM 50.0571 -62.5562 221° Southwest  Level Estimated
Sun 07:50:00 PM 49.9680 -62.6774 221° Southwest  Level Estimated
Sun 07:51:00 PM 49.8787 -62.7981 221° Southwest  Level Estimated
Sun 07:52:00 PM 49.7894 -62.9184 221° Southwest  Level Estimated
Sun 07:53:00 PM 49.6999 -63.0383 221° Southwest  Level Estimated
Sun 07:54:00 PM 49.6103 -63.1577 221° Southwest  Level Estimated
Sun 07:55:00 PM 49.5206 -63.2767 221° Southwest  Level Estimated
Sun 07:56:00 PM 49.4308 -63.3952 221° Southwest  Level Estimated
Sun 07:57:00 PM 49.3408 -63.5133 221° Southwest  Level Estimated
Sun 07:58:00 PM 49.2507 -63.6310 220° Southwest  Level Estimated
Sun 07:59:00 PM 49.1605 -63.7482 220° Southwest  Level Estimated
Sun 08:00:00 PM 49.0702 -63.8651 220° Southwest  Level Estimated
Sun 08:01:00 PM 48.9798 -63.9815 220° Southwest  Level Estimated
Sun 08:02:00 PM 48.8892 -64.0974 220° Southwest  Level Estimated
Sun 08:03:00 PM 48.7985 -64.2130 220° Southwest  Level Estimated
Sun 08:04:00 PM 48.7077 -64.3281 220° Southwest  Level Estimated
Sun 08:05:00 PM 48.6168 -64.4428 220° Southwest  Level Estimated
Sun 08:06:00 PM 48.5258 -64.5572 220° Southwest  Level Estimated
Sun 08:07:00 PM 48.4347 -64.6711 220° Southwest  Level Estimated
Sun 08:08:00 PM 48.3434 -64.7845 220° Southwest  Level Estimated
Sun 08:09:00 PM 48.2521 -64.8976 220° Southwest  Level Estimated
Sun 08:10:00 PM 48.1606 -65.0103 219° Southwest  Level Estimated
Sun 08:11:00 PM 48.0691 -65.1226 219° Southwest  Level Estimated
Sun 08:12:00 PM 47.9774 -65.2345 219° Southwest  Level Estimated
Sun 08:13:00 PM 47.8856 -65.3459 219° Southwest  Level Estimated
Sun 08:14:00 PM 47.7937 -65.4570 219° Southwest  Level Estimated
Sun 08:15:00 PM 47.7017 -65.5677 219° Southwest  Level Estimated
Sun 08:16:00 PM 47.6096 -65.6780 219° Southwest  Level Estimated
Sun 08:17:00 PM 47.5174 -65.7880 219° Southwest  Level Estimated
Sun 08:18:00 PM 47.4251 -65.8975 219° Southwest  Level Estimated
Sun 08:19:00 PM 47.3326 -66.0066 219° Southwest  Level Estimated
Sun 08:20:00 PM 47.2401 -66.1154 219° Southwest  Level Estimated
Sun 08:21:00 PM 47.1475 -66.2238 219° Southwest  Level Estimated
Sun 08:22:00 PM 47.0547 -66.3318 218° Southwest  Level Estimated
Sun 08:23:00 PM 46.9619 -66.4395 218° Southwest  Level Estimated
Sun 08:24:00 PM 46.8690 -66.5467 218° Southwest  Level Estimated
Sun 08:25:00 PM 46.7760 -66.6536 218° Southwest  Level Estimated
Sun 08:26:00 PM 46.6828 -66.7601 218° Southwest  Level Estimated
Sun 08:27:00 PM 46.5896 -66.8663 218° Southwest  Level Estimated
Sun 08:28:00 PM 46.4963 -66.9721 218° Southwest  Level Estimated
Sun 08:29:00 PM 46.4029 -67.0775 218° Southwest  Level Estimated
Sun 08:30:00 PM 46.3093 -67.1826 218° Southwest  Level Estimated
Sun 08:31:00 PM 46.2157 -67.2873 218° Southwest  Level Estimated
Sun 08:32:00 PM 46.1220 -67.3916 218° Southwest  Level Estimated
Sun 08:33:00 PM 46.0282 -67.4956 218° Southwest  Level Estimated
Sun 08:34:00 PM 45.9343 -67.5993 218° Southwest  Level Estimated
Sun 08:35:00 PM 45.8403 -67.7026 217° Southwest  Level Estimated
Sun 08:36:00 PM 45.7462 -67.8055 217° Southwest  Level Estimated
Sun 08:37:00 PM 45.6520 -67.9081 217° Southwest  Level Estimated
Sun 08:38:00 PM 45.5578 -68.0104 217° Southwest  Level Estimated
Sun 08:39:00 PM 45.4634 -68.1123 217° Southwest  Level Estimated
Sun 08:40:00 PM 45.3689 -68.2138 217° Southwest  Level Estimated
Sun 08:41:00 PM 45.2744 -68.3151 217° Southwest  Level Estimated
Sun 08:42:00 PM 45.1798 -68.4160 217° Southwest  Level Estimated
Sun 08:43:00 PM 45.0851 -68.5165 217° Southwest  Level Estimated
Sun 08:44:00 PM 44.9902 -68.6168 217° Southwest  Level Estimated
Sun 08:45:00 PM 44.8954 -68.7167 217° Southwest  Level Estimated
Sun 08:46:00 PM 44.8004 -68.8162 217° Southwest  Level Estimated
Sun 08:47:00 PM 44.7053 -68.9155 217° Southwest  Level Estimated
Sun 08:48:00 PM 44.6102 -69.0144 217° Southwest  Level Estimated
Sun 08:49:00 PM 44.5149 -69.1130 216° Southwest  Level Estimated
Sun 08:50:00 PM 44.4196 -69.2112 216° Southwest  Level Estimated
Sun 08:51:00 PM 44.3242 -69.3092 216° Southwest  Level Estimated
Sun 08:52:00 PM 44.2287 -69.4068 216° Southwest  Level Estimated
Sun 08:53:00 PM 44.1331 -69.5041 216° Southwest  Level Estimated
Sun 08:54:00 PM 44.0375 -69.6011 216° Southwest  Level Estimated
Sun 08:55:00 PM 43.9417 -69.6978 216° Southwest  Level Estimated
Sun 08:56:00 PM 43.8459 -69.7942 216° Southwest  Level Estimated
Sun 08:57:00 PM 43.7500 -69.8903 216° Southwest  Level Estimated
Sun 08:58:00 PM 43.6540 -69.9860 216° Southwest  Level Estimated
Sun 08:59:00 PM 43.5580 -70.0815 216° Southwest  Level Estimated
Sun 09:00:00 PM 43.4618 -70.1766 216° Southwest  Level Estimated
Sun 09:01:00 PM 43.3656 -70.2715 216° Southwest  Level Estimated
Sun 09:02:00 PM 43.2693 -70.3660 216° Southwest  Level Estimated
Sun 09:03:00 PM 43.1729 -70.4603 216° Southwest  Level Estimated
Sun 09:04:00 PM 43.0765 -70.5542 215° Southwest  Level Estimated
Sun 09:05:00 PM 42.9800 -70.6479 215° Southwest  Level Estimated
Sun 09:06:00 PM 42.8834 -70.7412 215° Southwest  Level Estimated
Sun 09:07:00 PM 42.7867 -70.8343 215° Southwest  Level Estimated
Sun 09:08:00 PM 42.6899 -70.9271 215° Southwest  Level Estimated
Sun 09:09:00 PM 42.5931 -71.0196 215° Southwest  Level Estimated
Sun 09:10:00 PM 42.4962 -71.1118 215° Southwest  Level Estimated
Sun 09:11:00 PM 42.3992 -71.2037 215° Southwest  Level Estimated
Sun 09:12:00 PM 42.3022 -71.2953 215° Southwest  Level Estimated
Sun 09:13:00 PM 42.2051 -71.3867 215° Southwest  Level Estimated
Sun 09:14:00 PM 42.1079 -71.4778 215° Southwest  Level Estimated
Sun 09:15:00 PM 42.0106 -71.5685 215° Southwest  Level Estimated
Sun 09:16:00 PM 41.9132 -71.6590 215° Southwest  Level Estimated
Sun 09:17:00 PM 41.8158 -71.7493 215° Southwest  Level Estimated
Sun 09:18:00 PM 41.7184 -71.8393 215° Southwest  Level Estimated
Sun 09:19:00 PM 41.6208 -71.9289 215° Southwest  Level Estimated
Sun 09:20:00 PM 41.5232 -72.0184 214° Southwest  Level Estimated
Sun 09:21:00 PM 41.4255 -72.1075 214° Southwest  Level Estimated
Sun 09:22:00 PM 41.3278 -72.1964 214° Southwest  Level Estimated
Sun 09:23:00 PM 41.2299 -72.2850 214° Southwest  Level Estimated
Sun 09:24:00 PM 41.1320 -72.3734 214° Southwest  Level Estimated
Sun 09:25:00 PM 41.0341 -72.4615 214° Southwest  Level Estimated
Sun 09:26:00 PM 40.9361 -72.5493 214° Southwest  Level Estimated
Sun 09:27:00 PM 40.8437 -72.6318 214° Southwest  Level Estimated
Sun 09:28:00 PM 40.8437 -72.6318 153° Southeast  Level Estimated
Sun 09:29:00 PM 40.8437 -72.6318 153° Southeast  Level Estimated
Sun 09:30:00 PM 40.8437 -72.6318 153° Southeast  Level Estimated
Sun 09:31:00 PM 40.8437 -72.6318 153° Southeast  Level Estimated
Sun 09:32:00 PM 40.8437 -72.6318 153° Southeast  Level Estimated
Sun 09:33:00 PM 40.8437 -72.6318 153° Southeast  Level Estimated
Sun 09:34:00 PM 40.8437 -72.6318 153° Southeast  Level Estimated
Sun 09:35:00 PM 40.8437 -72.6318 153° Southeast  Level Estimated
Sun 09:36:00 PM 40.8437 -72.6318 153° Southeast  Level Estimated
Sun 09:37:00 PM 40.8437 -72.6318 153° Southeast  Level Estimated
Sun 09:38:00 PM 40.8437 -72.6318 153° Southeast  Level Estimated
Sun 09:39:00 PM 40.8437 -72.6318 153° Southeast  Level Estimated
Sun 09:40:00 PM 40.8437 -72.6318 153° Southeast  Level Estimated
Sun 09:41:00 PM 40.8437 -72.6318 153° Southeast  Level Estimated
Sun 09:42:00 PM 40.8437 -72.6318 153° Southeast  Level Estimated
Sun 09:43:00 PM 40.8437 -72.6318 153° Southeast  Level Estimated

Login

Don't have an account? Register now (free) for customized features, flight alerts, and more!